Time;durP1;ratioP1;P1;durP2;ratioP2;P2;SDS_P1;SDS_P2;PMS_P1;PMS_P2;Temp;Humidity;BMP_temperature;BMP_pressure;BME280_temperature;BME280_humidity;BME280_pressure;Samples;Min_cycle;Max_cycle;Signal;HPM_P1;HPM_P2
2022/07/23 00:05:11;;;;;;;10.35;5.47;;;31.40;50.50;;;;;;10870092;32;20328;-71
2022/07/23 00:11:13;;;;;;;8.68;4.97;;;31.40;50.50;;;;;;10870006;32;20345;-71
2022/07/23 00:17:15;;;;;;;6.97;4.97;;;31.40;50.70;;;;;;10869670;32;20443;-71
2022/07/23 00:23:17;;;;;;;6.55;5.30;;;31.40;50.70;;;;;;10865206;32;20054;-71
2022/07/23 00:29:20;;;;;;;8.18;5.15;;;31.20;51.00;;;;;;10869291;32;20024;-71
2022/07/23 00:35:24;;;;;;;7.62;4.30;;;31.10;51.20;;;;;;10863992;32;20329;-71
2022/07/23 00:41:26;;;;;;;6.53;4.85;;;31.10;51.30;;;;;;10868868;32;20078;-71
2022/07/23 00:47:28;;;;;;;9.02;4.68;;;31.00;51.40;;;;;;10868638;32;20027;-71
2022/07/23 00:53:31;;;;;;;7.20;5.25;;;30.90;51.50;;;;;;10864194;32;20028;-71
2022/07/23 00:59:33;;;;;;;8.07;5.20;;;30.90;51.60;;;;;;10868356;32;20031;-71
2022/07/23 01:05:35;;;;;;;8.80;5.78;;;30.90;51.60;;;;;;10867223;32;20343;-70
2022/07/23 01:11:37;;;;;;;8.20;5.75;;;30.90;51.70;;;;;;10867779;32;20046;-71
2022/07/23 01:17:41;;;;;;;6.20;5.35;;;30.80;51.80;;;;;;10863520;32;20046;-71
2022/07/23 01:23:43;;;;;;;7.50;5.72;;;30.60;52.20;;;;;;10867571;32;20032;-71
2022/07/23 01:29:45;;;;;;;8.88;6.20;;;30.60;52.60;;;;;;10866897;32;20082;-71
2022/07/23 01:35:47;;;;;;;11.12;6.90;;;30.60;53.20;;;;;;10867363;32;20301;-71
2022/07/23 01:41:50;;;;;;;6.85;5.07;;;30.40;53.70;;;;;;10864388;32;20032;-71
2022/07/23 01:47:52;;;;;;;8.30;6.15;;;30.30;53.70;;;;;;10866954;32;20281;-71
2022/07/23 01:53:54;;;;;;;8.88;6.65;;;30.20;53.70;;;;;;10866890;32;20024;-71
2022/07/23 01:59:56;;;;;;;9.60;7.37;;;30.20;53.80;;;;;;10861795;32;20356;-71
2022/07/23 02:05:58;;;;;;;7.95;6.35;;;30.20;53.70;;;;;;10862390;32;20062;-71
2022/07/23 02:12:03;;;;;;;8.00;7.15;;;30.20;53.60;;;;;;10866704;32;20332;-71
2022/07/23 02:18:05;;;;;;;10.13;6.93;;;30.20;53.80;;;;;;10866586;32;20097;-71
2022/07/23 02:24:07;;;;;;;8.50;7.15;;;30.10;53.90;;;;;;10866335;32;20349;-71
2022/07/23 02:30:10;;;;;;;8.88;6.75;;;30.10;54.20;;;;;;10866239;32;20043;-71
2022/07/23 02:36:12;;;;;;;9.48;6.97;;;30.00;54.70;;;;;;10866269;32;20066;-70
2022/07/23 02:42:15;;;;;;;10.60;7.15;;;30.00;54.60;;;;;;10869029;32;20033;-71
2022/07/23 02:48:18;;;;;;;9.95;6.12;;;30.00;54.40;;;;;;10872928;32;20027;-71
2022/07/23 02:54:20;;;;;;;9.82;7.82;;;29.90;54.60;;;;;;10872738;32;20434;-71
2022/07/23 03:00:23;;;;;;;13.62;7.85;;;29.90;54.70;;;;;;10872613;32;20042;-71
2022/07/23 03:06:25;;;;;;;10.27;7.50;;;29.80;54.60;;;;;;10872201;32;20028;-71
2022/07/23 03:12:27;;;;;;;10.90;7.12;;;29.80;55.10;;;;;;10872064;32;20423;-71
2022/07/23 03:18:29;;;;;;;8.70;6.62;;;29.80;55.10;;;;;;10871883;32;20016;-71
2022/07/23 03:30:52;;;;;;;7.37;6.05;;;29.80;55.30;;;;;;10871336;32;20016;-70
2022/07/23 03:37:14;;;;;;;8.80;5.82;;;29.60;55.10;;;;;;10871379;32;20045;-71
2022/07/23 03:43:17;;;;;;;8.88;6.57;;;29.60;55.00;;;;;;10866805;32;20442;-71
2022/07/23 03:49:19;;;;;;;10.32;7.10;;;29.60;55.00;;;;;;10869598;32;20032;-71
2022/07/23 03:55:22;;;;;;;12.05;6.60;;;29.40;55.10;;;;;;10870680;32;20032;-71
2022/07/23 04:01:24;;;;;;;10.63;6.00;;;29.40;55.00;;;;;;10857294;32;20023;-71
2022/07/23 04:07:27;;;;;;;7.85;5.45;;;29.30;55.10;;;;;;10869911;32;20067;-71
2022/07/23 04:13:29;;;;;;;7.70;6.05;;;29.40;55.30;;;;;;10869740;32;20028;-71
2022/07/23 04:19:32;;;;;;;10.25;7.05;;;29.40;55.50;;;;;;10869672;32;20047;-70
2022/07/23 04:25:34;;;;;;;12.68;7.55;;;29.40;55.40;;;;;;10868370;32;20043;-70
2022/07/23 04:31:37;;;;;;;8.95;6.30;;;29.30;55.30;;;;;;10903380;27;20063;-70
2022/07/23 04:37:40;;;;;;;9.20;6.45;;;29.30;55.40;;;;;;10906426;32;20023;-70
2022/07/23 04:43:42;;;;;;;10.88;7.50;;;29.30;55.30;;;;;;10901885;32;20039;-70
2022/07/23 04:49:45;;;;;;;9.02;6.28;;;29.30;55.20;;;;;;10901739;32;20057;-70
2022/07/23 04:55:47;;;;;;;7.97;6.47;;;29.30;55.10;;;;;;10892591;32;20077;-70
2022/07/23 05:01:49;;;;;;;12.55;6.72;;;29.40;55.00;;;;;;10905024;32;20046;-70
2022/07/23 05:07:53;;;;;;;11.77;8.55;;;29.40;55.30;;;;;;10892138;32;20054;-70
2022/07/23 05:13:56;;;;;;;10.40;6.82;;;29.30;55.90;;;;;;10905145;32;20023;-70
2022/07/23 05:19:58;;;;;;;10.38;7.68;;;29.30;56.30;;;;;;10904941;32;20027;-70
2022/07/23 05:26:01;;;;;;;12.35;7.25;;;29.50;55.90;;;;;;10890925;32;20062;-71
2022/07/23 05:32:04;;;;;;;9.13;7.15;;;29.60;55.80;;;;;;10904638;32;20284;-70
2022/07/23 05:38:06;;;;;;;9.27;7.00;;;29.70;55.70;;;;;;10886601;32;20058;-70
2022/07/23 05:44:10;;;;;;;9.20;7.85;;;29.80;55.80;;;;;;10864833;32;20031;-70
2022/07/23 05:50:14;;;;;;;8.88;6.57;;;29.80;55.70;;;;;;10868895;32;20051;-70
2022/07/23 05:56:17;;;;;;;8.85;7.60;;;29.90;55.80;;;;;;10866896;32;20035;-70
2022/07/23 06:02:20;;;;;;;9.82;7.12;;;29.90;56.00;;;;;;10862805;32;20336;-71
2022/07/23 06:08:22;;;;;;;11.07;8.98;;;30.00;56.10;;;;;;10870815;32;20398;-71
2022/07/23 06:14:25;;;;;;;8.82;7.93;;;30.00;56.00;;;;;;10877509;32;20043;-70
2022/07/23 06:20:27;;;;;;;11.23;6.78;;;30.10;56.00;;;;;;10895525;32;20078;-69
2022/07/23 06:26:31;;;;;;;10.07;7.47;;;30.30;55.70;;;;;;10880637;32;20043;-69
2022/07/23 06:32:35;;;;;;;7.72;6.12;;;30.50;55.10;;;;;;10884879;32;20031;-69
2022/07/23 06:38:37;;;;;;;8.63;6.68;;;30.70;54.80;;;;;;10869855;32;20047;-70
2022/07/23 06:44:39;;;;;;;11.65;7.97;;;30.80;54.70;;;;;;10897975;32;20058;-70
2022/07/23 06:50:42;;;;;;;11.43;7.65;;;30.90;54.50;;;;;;10943188;32;20065;-69
2022/07/23 06:56:44;;;;;;;7.78;6.60;;;31.00;54.30;;;;;;10943848;32;20023;-71
2022/07/23 07:02:46;;;;;;;10.73;7.68;;;31.00;54.30;;;;;;10942989;32;20027;-69
2022/07/23 07:08:49;;;;;;;9.90;7.35;;;31.10;54.10;;;;;;10942476;32;20050;-70
2022/07/23 07:14:51;;;;;;;10.38;7.68;;;31.30;54.00;;;;;;10946785;32;20407;-69
2022/07/23 07:20:53;;;;;;;8.05;6.90;;;31.30;54.00;;;;;;10942377;32;20027;-69
2022/07/23 07:26:55;;;;;;;11.77;7.28;;;31.40;53.70;;;;;;10932202;32;20343;-70
2022/07/23 07:32:58;;;;;;;11.75;9.65;;;31.60;53.70;;;;;;10941281;32;20063;-68
2022/07/23 07:39:00;;;;;;;9.93;8.77;;;31.70;53.50;;;;;;10932284;32;20031;-70
2022/07/23 07:45:02;;;;;;;8.48;7.35;;;31.80;53.70;;;;;;10943701;32;20331;-69
2022/07/23 07:51:05;;;;;;;13.65;8.45;;;31.90;53.40;;;;;;10944618;32;20430;-70
2022/07/23 07:57:07;;;;;;;12.75;10.30;;;32.10;53.20;;;;;;10895060;32;20058;-70
2022/07/23 08:03:09;;;;;;;9.65;7.47;;;32.30;52.60;;;;;;10873997;32;20399;-71
2022/07/23 08:09:11;;;;;;;10.20;8.30;;;32.30;52.40;;;;;;10870144;32;20024;-70
2022/07/23 08:15:16;;;;;;;10.60;8.57;;;32.50;51.80;;;;;;10856791;32;20016;-69
2022/07/23 08:21:18;;;;;;;11.12;9.35;;;32.70;51.10;;;;;;10856447;32;20063;-70
2022/07/23 08:27:20;;;;;;;9.25;7.90;;;32.80;50.20;;;;;;10869408;32;20053;-70
2022/07/23 08:33:22;;;;;;;9.77;7.55;;;32.90;49.40;;;;;;10883749;32;20284;-70
2022/07/23 08:39:24;;;;;;;12.77;7.18;;;33.00;49.00;;;;;;10904468;32;20016;-70
2022/07/23 08:45:27;;;;;;;8.90;7.57;;;33.10;48.70;;;;;;10904097;32;20023;-70
2022/07/23 08:51:29;;;;;;;16.45;10.63;;;33.30;48.20;;;;;;10905955;32;20015;-70
2022/07/23 08:57:31;;;;;;;16.85;7.35;;;33.40;47.60;;;;;;10905797;32;20380;-68
2022/07/23 09:03:38;;;;;;;8.93;7.55;;;33.50;46.90;;;;;;10904097;32;20023;-70
2022/07/23 09:09:40;;;;;;;10.50;7.30;;;33.70;45.70;;;;;;10905253;32;20388;-67
2022/07/23 09:15:53;;;;;;;9.30;8.02;;;33.80;45.40;;;;;;10902275;32;20069;-70
2022/07/23 09:22:23;;;;;;;7.93;6.70;;;33.90;44.40;;;;;;10905049;32;20023;-70
2022/07/23 09:28:25;;;;;;;7.28;6.47;;;34.10;43.90;;;;;;10904713;32;20050;-70
2022/07/23 09:34:30;;;;;;;9.10;7.07;;;34.20;43.50;;;;;;10901316;32;20054;-70
2022/07/23 09:40:32;;;;;;;11.27;8.88;;;34.40;42.80;;;;;;10891271;32;20015;-70
2022/07/23 09:46:34;;;;;;;9.57;7.37;;;34.50;41.90;;;;;;10902813;32;20027;-70
2022/07/23 09:52:44;;;;;;;10.10;7.55;;;34.60;41.90;;;;;;10904154;32;20015;-70
2022/07/23 09:58:52;;;;;;;9.23;6.93;;;34.80;41.40;;;;;;10903930;32;20050;-70
2022/07/23 10:04:55;;;;;;;9.85;6.60;;;35.00;41.40;;;;;;10904110;32;20467;-70
2022/07/23 10:11:00;;;;;;;8.55;7.18;;;35.30;40.90;;;;;;10904076;32;20023;-70
2022/07/23 10:17:04;;;;;;;7.20;5.93;;;35.40;40.40;;;;;;10890466;32;20040;-70
2022/07/23 10:23:25;;;;;;;8.82;7.03;;;35.30;40.30;;;;;;10868299;32;20020;-70
2022/07/23 10:29:48;;;;;;;8.35;6.65;;;35.60;39.70;;;;;;10863214;32;20050;-70
2022/07/23 10:35:58;;;;;;;7.90;6.28;;;35.80;38.70;;;;;;10862794;32;20031;-70
2022/07/23 10:42:11;;;;;;;8.35;5.78;;;35.90;38.10;;;;;;10866193;32;20031;-70
2022/07/23 10:48:17;;;;;;;8.85;6.10;;;36.10;37.60;;;;;;10861409;32;20023;-70
2022/07/23 10:54:21;;;;;;;;;;;36.30;37.10;;;;;;10866292;32;20344;-70
2022/07/23 11:00:28;;;;;;;7.28;6.20;;;36.40;36.50;;;;;;10867429;32;19927;-71
2022/07/23 11:06:49;;;;;;;7.05;5.85;;;36.60;35.80;;;;;;10872387;32;20015;-70
2022/07/23 11:12:51;;;;;;;6.70;5.10;;;36.90;35.60;;;;;;10872065;32;20028;-69
2022/07/23 11:18:58;;;;;;;6.87;5.62;;;37.10;35.60;;;;;;10871940;32;20069;-70
2022/07/23 11:25:02;;;;;;;6.47;5.30;;;37.40;35.30;;;;;;10871461;32;20430;-69
2022/07/23 11:31:17;;;;;;;9.05;5.93;;;37.70;35.00;;;;;;10871353;32;20032;-69
2022/07/23 11:37:40;;;;;;;8.02;5.35;;;37.90;34.70;;;;;;10871318;32;20054;-71
2022/07/23 11:43:42;;;;;;;8.27;6.15;;;37.80;35.30;;;;;;10870974;32;20036;-71
2022/07/23 11:49:55;;;;;;;7.40;4.78;;;38.00;34.60;;;;;;10870953;32;20019;-71
2022/07/23 11:56:11;;;;;;;6.30;4.93;;;38.20;33.70;;;;;;10870657;32;20016;-71
2022/07/23 12:02:13;;;;;;;10.00;5.60;;;38.00;33.70;;;;;;10870413;32;20054;-71
2022/07/23 12:08:15;;;;;;;7.03;5.10;;;37.50;33.80;;;;;;10870172;32;20428;-71
2022/07/23 12:14:17;;;;;;;8.57;5.82;;;37.20;33.90;;;;;;10869763;32;20019;-71
2022/07/23 12:20:23;;;;;;;8.55;6.45;;;37.30;33.90;;;;;;10856474;32;20027;-71
2022/07/23 12:26:25;;;;;;;7.72;5.03;;;37.80;33.20;;;;;;10869536;32;20019;-71
2022/07/23 12:32:29;;;;;;;7.90;6.32;;;38.00;32.60;;;;;;10866172;27;20058;-71
2022/07/23 12:38:48;;;;;;;11.50;8.30;;;38.30;32.80;;;;;;10869024;32;20024;-72
2022/07/23 12:45:07;;;;;;;8.18;6.60;;;38.40;33.40;;;;;;10868914;32;20316;-71
2022/07/23 12:51:16;;;;;;;12.63;7.55;;;38.30;33.70;;;;;;10868757;32;20340;-72
2022/07/23 12:57:18;;;;;;;8.68;7.10;;;38.40;33.80;;;;;;10868496;32;20081;-71
2022/07/23 13:03:28;;;;;;;8.18;6.50;;;38.40;33.50;;;;;;10868196;32;20024;-71
2022/07/23 13:09:32;;;;;;;15.50;6.75;;;38.40;33.40;;;;;;10854744;32;20050;-68
2022/07/23 13:15:34;;;;;;;8.55;7.37;;;38.70;33.30;;;;;;10867975;32;20038;-71
2022/07/23 13:21:36;;;;;;;7.70;6.70;;;38.50;33.30;;;;;;10864555;32;20333;-71
2022/07/23 13:27:38;;;;;;;10.82;7.43;;;38.50;33.20;;;;;;10867079;32;20063;-71
2022/07/23 13:33:41;;;;;;;6.90;6.03;;;38.50;33.10;;;;;;10867426;32;20306;-70
2022/07/23 13:39:43;;;;;;;9.48;5.65;;;38.40;32.80;;;;;;10867145;32;20027;-71
2022/07/23 13:45:45;;;;;;;7.87;6.03;;;38.40;32.90;;;;;;10852911;32;20032;-71
2022/07/23 13:51:48;;;;;;;7.72;5.72;;;38.50;32.40;;;;;;10862892;32;20058;-71
2022/07/23 13:57:50;;;;;;;10.07;7.12;;;38.60;32.30;;;;;;10866797;32;20054;-70
2022/07/23 14:03:52;;;;;;;8.95;5.75;;;38.40;32.20;;;;;;10866807;32;20019;-71
2022/07/23 14:09:54;;;;;;;6.85;4.60;;;38.30;32.40;;;;;;10866733;32;20050;-71
2022/07/23 14:15:56;;;;;;;8.38;5.68;;;38.30;32.10;;;;;;10865801;32;20473;-71
2022/07/23 14:21:59;;;;;;;9.00;5.50;;;38.40;31.90;;;;;;10862330;32;20081;-71
2022/07/23 14:28:01;;;;;;;5.90;4.25;;;38.40;31.80;;;;;;10866360;32;20050;-71
2022/07/23 14:34:03;;;;;;;8.32;5.55;;;38.30;31.70;;;;;;10867600;32;20348;-71
2022/07/23 14:40:06;;;;;;;7.90;4.22;;;38.20;31.60;;;;;;10873317;32;20016;-71
2022/07/23 14:46:08;;;;;;;6.87;5.40;;;38.00;31.80;;;;;;10873008;32;20062;-71
2022/07/23 14:52:10;;;;;;;6.32;4.62;;;38.10;32.10;;;;;;10872907;32;20039;-71
2022/07/23 14:58:12;;;;;;;8.48;5.10;;;38.10;32.20;;;;;;10872685;32;20043;-71
2022/07/23 15:04:15;;;;;;;8.25;4.65;;;37.90;32.50;;;;;;10872420;32;20027;-71
2022/07/23 15:10:55;;;;;;;8.32;4.37;;;37.70;32.30;;;;;;10871252;32;20052;-71
2022/07/23 15:16:57;;;;;;;5.15;4.10;;;37.80;32.10;;;;;;10872131;32;20023;-71
2022/07/23 15:22:59;;;;;;;7.97;4.07;;;37.90;32.00;;;;;;10872058;32;20077;-71
2022/07/23 15:29:02;;;;;;;5.20;3.20;;;38.10;31.70;;;;;;10871078;32;20024;-71
2022/07/23 15:35:06;;;;;;;4.55;3.60;;;38.10;31.50;;;;;;10858297;32;20051;-71
2022/07/23 15:41:09;;;;;;;5.18;3.03;;;38.00;31.60;;;;;;10871099;32;20023;-71
2022/07/23 15:47:14;;;;;;;4.50;3.70;;;37.80;31.80;;;;;;10867577;32;20082;-71
2022/07/23 15:53:16;;;;;;;9.38;3.78;;;37.50;31.90;;;;;;10866891;32;20050;-71
2022/07/23 15:59:18;;;;;;;8.85;3.08;;;37.40;32.10;;;;;;10869641;32;20047;-71
2022/07/23 16:05:21;;;;;;;5.85;2.92;;;37.30;32.20;;;;;;10856567;32;20426;-72
2022/07/23 16:11:23;;;;;;;10.80;2.72;;;37.30;32.50;;;;;;10865232;32;20027;-71
2022/07/23 16:17:26;;;;;;;4.53;2.70;;;37.20;32.70;;;;;;10860768;32;20047;-71
2022/07/23 16:23:28;;;;;;;6.55;3.10;;;37.20;33.00;;;;;;10873467;32;20063;-71
2022/07/23 16:29:30;;;;;;;4.45;1.83;;;37.20;33.00;;;;;;10869487;32;20038;-71
2022/07/23 16:35:33;;;;;;;3.33;2.03;;;37.10;33.30;;;;;;10869327;32;20381;-71
2022/07/23 16:41:35;;;;;;;3.22;1.55;;;37.10;33.30;;;;;;10869072;32;20057;-71
2022/07/23 16:47:38;;;;;;;3.15;2.03;;;37.10;33.20;;;;;;10868681;32;20039;-72
2022/07/23 16:53:40;;;;;;;3.95;2.00;;;37.20;33.20;;;;;;10868499;32;20015;-71
2022/07/23 16:59:42;;;;;;;4.30;2.20;;;37.30;33.60;;;;;;10867830;32;20043;-72
2022/07/23 17:05:44;;;;;;;3.22;1.83;;;37.40;33.60;;;;;;10868227;32;20020;-71
2022/07/23 17:11:46;;;;;;;2.65;1.60;;;37.40;33.70;;;;;;10854849;32;20016;-72
2022/07/23 17:17:49;;;;;;;3.17;1.87;;;37.40;33.50;;;;;;10867920;32;20030;-71
2022/07/23 17:23:51;;;;;;;4.68;2.03;;;37.30;33.40;;;;;;10867661;32;20024;-71
2022/07/23 17:29:53;;;;;;;3.17;1.70;;;37.30;33.20;;;;;;10867593;32;20015;-72
2022/07/23 17:35:55;;;;;;;5.15;1.25;;;37.10;33.40;;;;;;10867608;32;20024;-72
2022/07/23 17:41:58;;;;;;;4.15;1.33;;;36.90;33.50;;;;;;10854044;32;20053;-72
2022/07/23 17:48:00;;;;;;;2.60;1.15;;;36.80;33.40;;;;;;10853478;32;20344;-72
2022/07/23 17:54:03;;;;;;;6.85;1.65;;;36.60;33.50;;;;;;10867046;32;20058;-72
2022/07/23 18:00:11;;;;;;;5.07;1.67;;;36.50;33.80;;;;;;10866856;32;20054;-71
2022/07/23 18:06:13;;;;;;;7.70;1.15;;;36.90;33.60;;;;;;10866822;32;20105;-71
2022/07/23 18:12:15;;;;;;;7.37;1.27;;;36.80;33.60;;;;;;10859193;32;20023;-71
2022/07/23 18:18:17;;;;;;;1.48;1.05;;;36.60;34.10;;;;;;10874036;32;20325;-71
2022/07/23 18:24:20;;;;;;;2.50;1.50;;;36.20;35.10;;;;;;10873846;32;20059;-71
2022/07/23 18:30:22;;;;;;;3.10;1.77;;;35.90;37.30;;;;;;10873657;32;20355;-71
2022/07/23 18:36:24;;;;;;;1.87;1.02;;;35.60;38.30;;;;;;10873589;32;20062;-71
2022/07/23 18:42:28;;;;;;;1.98;1.62;;;35.40;39.50;;;;;;10873304;32;20019;-71
2022/07/23 18:48:30;;;;;;;4.07;1.85;;;35.20;42.40;;;;;;10869571;32;20032;-72
2022/07/23 18:54:32;;;;;;;3.10;2.10;;;35.00;42.80;;;;;;10859673;32;20046;-71
2022/07/23 19:00:37;;;;;;;3.83;2.25;;;34.90;44.30;;;;;;10872750;32;20020;-71
2022/07/23 19:06:39;;;;;;;5.37;2.55;;;34.80;45.10;;;;;;10872318;32;20027;-71
2022/07/23 19:12:41;;;;;;;5.50;2.67;;;34.60;45.40;;;;;;10872281;32;20012;-71
2022/07/23 19:18:44;;;;;;;6.40;2.95;;;34.60;45.60;;;;;;10872129;32;20015;-71
2022/07/23 19:24:46;;;;;;;8.73;3.05;;;34.50;46.30;;;;;;10870881;32;20028;-72
2022/07/23 19:30:48;;;;;;;4.43;2.65;;;34.40;46.30;;;;;;10870557;32;20069;-71
2022/07/23 19:36:51;;;;;;;8.88;3.35;;;34.40;46.40;;;;;;10871588;32;20019;-71
2022/07/23 19:42:54;;;;;;;4.45;2.92;;;34.40;46.40;;;;;;10871286;32;20431;-72
2022/07/23 19:48:56;;;;;;;5.10;2.58;;;34.40;46.40;;;;;;10870898;32;20023;-72
2022/07/23 19:54:58;;;;;;;4.65;3.15;;;34.40;46.40;;;;;;10870844;32;20020;-71
2022/07/23 20:01:03;;;;;;;4.40;2.83;;;34.30;47.50;;;;;;10870546;32;20050;-71
2022/07/23 20:07:10;;;;;;;5.60;2.75;;;34.10;48.40;;;;;;10869255;32;20044;-71
2022/07/23 20:13:13;;;;;;;4.00;2.70;;;34.10;48.10;;;;;;10870156;32;20048;-71
2022/07/23 20:19:15;;;;;;;6.43;2.75;;;34.00;47.70;;;;;;10869915;32;20038;-71
2022/07/23 20:25:17;;;;;;;4.35;3.20;;;34.00;47.80;;;;;;10869704;32;20023;-71
2022/07/23 20:31:20;;;;;;;5.37;3.22;;;34.00;48.30;;;;;;10441763;27;12119479;-71
2022/07/23 20:37:22;;;;;;;4.37;2.45;;;33.90;49.30;;;;;;10791645;33;20028;-71
2022/07/23 20:43:25;;;;;;;3.90;2.62;;;33.70;50.10;;;;;;10790039;33;20020;-71
2022/07/23 20:49:27;;;;;;;6.47;3.80;;;33.70;49.70;;;;;;10778212;33;20047;-71
2022/07/23 20:55:30;;;;;;;3.95;3.25;;;33.70;49.60;;;;;;10834180;32;20062;-71
2022/07/23 21:01:32;;;;;;;8.55;3.53;;;33.50;50.60;;;;;;10868657;32;20028;-72
2022/07/23 21:07:34;;;;;;;4.65;2.72;;;33.50;51.10;;;;;;10868273;32;20400;-72
2022/07/23 21:13:37;;;;;;;6.00;4.32;;;33.50;50.80;;;;;;10868200;32;20027;-70
2022/07/23 21:19:39;;;;;;;6.53;3.58;;;33.40;51.50;;;;;;10867935;32;20442;-71
2022/07/23 21:25:41;;;;;;;5.75;3.92;;;33.30;52.20;;;;;;10867688;32;20059;-71
2022/07/23 21:31:45;;;;;;;4.30;3.10;;;33.20;52.40;;;;;;10867289;32;20027;-71
2022/07/23 21:37:47;;;;;;;5.00;3.10;;;33.10;52.60;;;;;;10867213;32;20028;-70
2022/07/23 21:43:49;;;;;;;3.60;2.50;;;33.00;53.40;;;;;;10866898;32;20019;-71
2022/07/23 21:49:51;;;;;;;5.30;3.47;;;32.90;54.30;;;;;;10867085;32;20058;-71
2022/07/23 21:55:53;;;;;;;5.05;3.12;;;32.80;54.60;;;;;;10867036;32;20038;-71
2022/07/23 22:01:55;;;;;;;5.47;3.47;;;32.80;54.80;;;;;;10867089;32;20449;-71
2022/07/23 22:07:57;;;;;;;5.43;3.10;;;32.70;55.40;;;;;;10866840;32;20404;-71
2022/07/23 22:14:00;;;;;;;4.93;3.25;;;32.60;55.60;;;;;;10866683;32;20380;-71
2022/07/23 22:20:05;;;;;;;4.80;3.00;;;32.60;56.20;;;;;;10866753;32;20023;-71
2022/07/23 22:26:07;;;;;;;6.05;3.47;;;32.50;56.80;;;;;;10865618;32;20047;-71
2022/07/23 22:32:10;;;;;;;3.58;2.22;;;32.40;58.30;;;;;;10865636;32;20443;-72
2022/07/23 22:38:12;;;;;;;8.27;3.03;;;32.30;58.30;;;;;;10866301;32;20396;-71
2022/07/23 22:44:38;;;;;;;2.90;2.00;;;32.20;58.00;;;;;;10866128;32;20035;-70
2022/07/23 22:50:44;;;;;;;3.50;2.30;;;32.30;57.70;;;;;;10866281;32;20451;-71
2022/07/23 22:56:46;;;;;;;2.45;1.73;;;32.30;57.40;;;;;;10869356;32;20038;-71
2022/07/23 23:02:48;;;;;;;4.40;3.00;;;32.30;56.70;;;;;;10872748;32;20419;-72
2022/07/23 23:08:50;;;;;;;5.05;2.90;;;32.20;55.70;;;;;;10847716;32;20077;-71
2022/07/23 23:14:52;;;;;;;7.72;2.87;;;32.10;55.70;;;;;;10834267;32;20030;-71
2022/07/23 23:20:56;;;;;;;4.47;2.15;;;32.00;55.80;;;;;;10834902;32;20321;-71
2022/07/23 23:26:58;;;;;;;3.17;2.15;;;32.00;55.90;;;;;;10833774;32;20027;-71
2022/07/23 23:33:00;;;;;;;4.75;2.30;;;32.00;55.90;;;;;;10834637;32;20074;-71
2022/07/23 23:39:02;;;;;;;2.90;1.67;;;32.00;56.20;;;;;;10834393;32;20019;-71
2022/07/23 23:45:06;;;;;;;4.20;1.85;;;32.00;56.20;;;;;;10834025;32;20020;-71
2022/07/23 23:51:08;;;;;;;1.70;1.37;;;32.00;55.90;;;;;;10831945;32;20024;-71
2022/07/23 23:57:11;;;;;;;2.90;2.12;;;31.90;56.30;;;;;;10833196;32;20059;-70
